createdAt,value
2022-10-02T00:01:56.802Z,97606.56
2022-10-02T00:07:04.054Z,97614.09
2022-10-02T00:12:08.844Z,97617.41
2022-10-02T00:17:33.548Z,97624.53
2022-10-02T00:22:47.415Z,97635.53
2022-10-02T00:28:16.453Z,97634.81
2022-10-02T00:33:29.462Z,97635.53
2022-10-02T00:38:49.412Z,97636.50
2022-10-02T00:44:08.408Z,97642.06
2022-10-02T00:49:40.342Z,97639.00
2022-10-02T00:55:19.026Z,97638.78
2022-10-02T01:00:23.041Z,97644.72
2022-10-02T01:05:25.764Z,97650.72
2022-10-02T01:10:28.531Z,97656.19
2022-10-02T01:15:34.753Z,97657.47
2022-10-02T01:20:42.162Z,97667.88
2022-10-02T01:25:43.865Z,97672.78
2022-10-02T01:30:50.701Z,97670.97
2022-10-02T01:35:52.504Z,97686.00
2022-10-02T01:40:54.083Z,97688.47
2022-10-02T01:46:31.936Z,97695.41
2022-10-02T01:51:56.427Z,97694.34
2022-10-02T01:57:10.495Z,97700.78
2022-10-02T02:02:26.517Z,97705.53
2022-10-02T02:07:43.936Z,97703.88
2022-10-02T02:13:07.940Z,97710.25
2022-10-02T02:18:35.684Z,97702.84
2022-10-02T02:23:40.372Z,97703.19
2022-10-02T02:28:47.086Z,97709.34
2022-10-02T02:33:55.364Z,97708.53
2022-10-02T02:39:03.241Z,97706.47
2022-10-02T02:44:13.223Z,97702.09
2022-10-02T02:49:14.948Z,97723.75
2022-10-02T02:54:26.296Z,97714.97
2022-10-02T02:59:32.646Z,97720.34
2022-10-02T03:04:34.212Z,97717.88
2022-10-02T03:09:37.834Z,97727.25
2022-10-02T03:15:09.054Z,97723.09
2022-10-02T03:20:24.194Z,97721.00
2022-10-02T03:25:31.831Z,97729.91
2022-10-02T03:30:35.477Z,97742.41
2022-10-02T03:35:38.334Z,97742.78
2022-10-02T03:40:40.303Z,97731.34
2022-10-02T03:45:57.016Z,97722.47
2022-10-02T03:50:59.094Z,97732.63
2022-10-02T03:56:13.530Z,97734.41
2022-10-02T04:01:27.225Z,97739.28
2022-10-02T04:06:37.115Z,97735.09
2022-10-02T04:11:43.846Z,97741.84
2022-10-02T04:16:57.608Z,97741.31
2022-10-02T04:22:14.516Z,97736.13
2022-10-02T04:27:26.518Z,97736.34
2022-10-02T04:32:32.217Z,97731.44
2022-10-02T04:38:15.563Z,97737.50
2022-10-02T04:43:31.648Z,97737.81
2022-10-02T04:49:05.627Z,97747.41
2022-10-02T04:54:25.767Z,97757.94
2022-10-02T04:59:44.211Z,97750.44
2022-10-02T05:05:24.346Z,97750.31
2022-10-02T05:10:47.634Z,97747.72
2022-10-02T05:16:15.698Z,97751.28
2022-10-02T05:21:54.388Z,97759.16
2022-10-02T05:27:11.161Z,97760.09
2022-10-02T05:32:37.605Z,97753.69
2022-10-02T05:38:22.544Z,97764.44
2022-10-02T05:43:48.887Z,97759.34
2022-10-02T05:49:17.578Z,97756.00
2022-10-02T05:54:40.011Z,97760.84
2022-10-02T05:59:45.974Z,97757.59
2022-10-02T06:04:57.347Z,97746.63
2022-10-02T06:10:16.130Z,97756.97
2022-10-02T06:15:34.361Z,97764.44
2022-10-02T06:20:48.899Z,97776.47
2022-10-02T06:25:53.593Z,97773.94
2022-10-02T06:31:21.323Z,97772.78
2022-10-02T06:36:35.210Z,97771.88
2022-10-02T06:41:47.357Z,97764.50
2022-10-02T06:47:16.515Z,97764.31
2022-10-02T06:52:26.157Z,97758.53
2022-10-02T06:57:52.509Z,97760.06
2022-10-02T07:03:27.199Z,97752.03
2022-10-02T07:08:52.923Z,97759.41
2022-10-02T07:14:16.533Z,97762.25
2022-10-02T07:19:38.832Z,97752.75
2022-10-02T07:25:14.016Z,97756.34
2022-10-02T07:30:17.878Z,97750.06
2022-10-02T07:35:48.763Z,97746.19
2022-10-02T07:41:02.455Z,97746.28
2022-10-02T07:46:41.983Z,97750.38
2022-10-02T07:51:58.065Z,97744.84
2022-10-02T07:57:10.302Z,97750.09
2022-10-02T08:02:25.077Z,97755.06
2022-10-02T08:07:28.656Z,97755.09
2022-10-02T08:12:56.657Z,97762.97
2022-10-02T08:18:22.916Z,97753.06
2022-10-02T08:23:44.352Z,97761.16
2022-10-02T08:29:11.939Z,97770.41
2022-10-02T08:34:17.010Z,97779.69
2022-10-02T08:39:37.309Z,97773.03
2022-10-02T08:44:51.080Z,97772.66
2022-10-02T08:50:30.054Z,97770.41
2022-10-02T08:56:05.285Z,97752.91
2022-10-02T09:01:09.940Z,97748.59
2022-10-02T09:06:30.585Z,97740.41
2022-10-02T09:11:37.267Z,97739.78
2022-10-02T09:16:47.644Z,97736.91
2022-10-02T09:21:56.149Z,97730.84
2022-10-02T09:27:26.034Z,97740.31
2022-10-02T09:32:34.648Z,97741.06
2022-10-02T09:37:51.874Z,97738.72
2022-10-02T09:43:35.631Z,97736.94
2022-10-02T09:49:02.891Z,97730.72
2022-10-02T09:54:29.565Z,97718.06
2022-10-02T09:59:46.356Z,97716.47
2022-10-02T10:05:34.626Z,97712.81
2022-10-02T10:10:43.308Z,97716.78
2022-10-02T10:16:03.105Z,97714.13
2022-10-02T10:21:14.628Z,97712.88
2022-10-02T10:26:52.144Z,97710.97
2022-10-02T10:32:15.573Z,97702.47
2022-10-02T10:38:11.261Z,97695.44
2022-10-02T10:43:43.152Z,97711.84
2022-10-02T10:49:15.463Z,97736.16
2022-10-02T10:54:22.953Z,97755.69
2022-10-02T10:59:42.323Z,97756.22
2022-10-02T11:05:15.516Z,97779.09
2022-10-02T11:10:54.296Z,97756.44
2022-10-02T11:16:09.038Z,97744.03
2022-10-02T11:21:22.732Z,97736.97
2022-10-02T11:26:47.970Z,97728.88
2022-10-02T11:32:19.364Z,97721.00
2022-10-02T11:37:37.792Z,97708.09
2022-10-02T11:43:00.975Z,97702.06
2022-10-02T11:48:39.074Z,97703.66
2022-10-02T11:54:01.896Z,97706.25
2022-10-02T11:59:18.783Z,97703.47
2022-10-02T12:04:55.013Z,97703.72
2022-10-02T12:10:39.436Z,97701.72
2022-10-02T12:15:46.857Z,97704.19
2022-10-02T12:21:25.444Z,97698.19
2022-10-02T12:26:48.651Z,97692.22
2022-10-02T12:32:08.203Z,97697.75
2022-10-02T12:37:15.723Z,97700.72
2022-10-02T12:42:26.629Z,97699.75
2022-10-02T12:47:49.879Z,97698.03
2022-10-02T12:53:29.732Z,97703.31
2022-10-02T12:58:42.518Z,97709.00
2022-10-02T13:03:59.333Z,97701.31
2022-10-02T13:09:17.993Z,97708.31
2022-10-02T13:14:37.822Z,97702.22
2022-10-02T13:19:42.327Z,97696.38
2022-10-02T13:24:58.354Z,97692.63
2022-10-02T13:30:06.640Z,97692.72
2022-10-02T13:35:44.385Z,97684.75
2022-10-02T13:40:46.182Z,97689.25
2022-10-02T13:46:17.418Z,97694.63
2022-10-02T13:51:36.161Z,97693.81
2022-10-02T13:57:14.723Z,97699.38
2022-10-02T14:03:00.148Z,97691.25
2022-10-02T14:08:23.133Z,97694.53
2022-10-02T14:13:36.178Z,97704.00
2022-10-02T14:19:19.152Z,97708.75
2022-10-02T14:24:51.835Z,97713.72
2022-10-02T14:30:10.138Z,97700.34
2022-10-02T14:35:46.263Z,97698.13
2022-10-02T14:40:50.747Z,97706.41
2022-10-02T14:46:04.741Z,97701.41
2022-10-02T14:51:36.765Z,97709.88
2022-10-02T14:57:20.107Z,97714.19
2022-10-02T15:02:21.875Z,97713.25
2022-10-02T15:07:28.243Z,97706.78
2022-10-02T15:12:35.810Z,97705.19
2022-10-02T15:17:57.473Z,97721.03
2022-10-02T15:23:01.958Z,97728.81
2022-10-02T15:28:37.335Z,97730.69
2022-10-02T15:34:11.113Z,97733.81
2022-10-02T15:39:18.850Z,97741.44
2022-10-02T15:44:39.102Z,97748.25
2022-10-02T15:49:53.276Z,97752.56
2022-10-02T15:55:07.941Z,97753.47
2022-10-02T16:00:16.873Z,97750.34
2022-10-02T16:05:38.859Z,97758.84
2022-10-02T16:11:07.016Z,97763.91
2022-10-02T16:16:32.055Z,97763.72
2022-10-02T16:28:08.039Z,97770.88
2022-10-02T16:33:45.760Z,97778.72
2022-10-02T16:38:56.337Z,97789.75
2022-10-02T16:44:47.171Z,97796.03
2022-10-02T16:50:10.529Z,97800.97
2022-10-02T16:55:30.816Z,97807.34
2022-10-02T17:00:39.606Z,97813.91
2022-10-02T17:06:14.047Z,97832.13
2022-10-02T17:11:22.710Z,97821.56
2022-10-02T17:16:55.921Z,97838.88
2022-10-02T17:22:13.737Z,97850.59
2022-10-02T17:27:47.262Z,97856.63
2022-10-02T17:33:16.009Z,97847.13
2022-10-02T17:38:29.756Z,97857.28
2022-10-02T17:43:37.264Z,97856.38
2022-10-02T17:48:52.115Z,97862.94
2022-10-02T17:54:41.935Z,97867.81
2022-10-02T18:00:08.733Z,97876.56
2022-10-02T18:05:34.430Z,97882.00
2022-10-02T18:10:57.315Z,97886.03
2022-10-02T18:16:22.223Z,97900.72
2022-10-02T18:21:39.300Z,97906.00
2022-10-02T18:26:59.676Z,97907.84
2022-10-02T18:32:12.880Z,97916.09
2022-10-02T18:37:17.328Z,97923.03
2022-10-02T18:43:02.274Z,97925.69
2022-10-02T18:48:33.677Z,97923.47
2022-10-02T18:54:19.858Z,97937.28
2022-10-02T18:59:26.575Z,97938.47
2022-10-02T19:04:28.120Z,97942.06
2022-10-02T19:09:33.490Z,97941.97
2022-10-02T19:14:41.183Z,97955.25
2022-10-02T19:19:44.617Z,97948.81
2022-10-02T19:24:49.612Z,97958.53
2022-10-02T19:30:26.701Z,97962.34
2022-10-02T19:35:38.693Z,97975.28
2022-10-02T19:40:43.227Z,97983.72
2022-10-02T19:45:56.569Z,97985.59
2022-10-02T19:51:04.481Z,97991.88
2022-10-02T19:56:24.249Z,98003.03
2022-10-02T20:01:32.701Z,98014.38
2022-10-02T20:06:39.728Z,98014.22
2022-10-02T20:11:43.079Z,98016.88
2022-10-02T20:17:03.537Z,98023.44
2022-10-02T20:22:36.897Z,98031.72
2022-10-02T20:27:47.163Z,98040.00
2022-10-02T20:32:57.765Z,98048.53
2022-10-02T20:38:02.964Z,98050.44
2022-10-02T20:43:15.414Z,98062.56
2022-10-02T20:49:09.736Z,98072.09
2022-10-02T20:54:42.358Z,98075.03
2022-10-02T21:00:15.890Z,98081.44
2022-10-02T21:05:17.399Z,98090.75
2022-10-02T21:10:40.593Z,98096.16
2022-10-02T21:15:51.808Z,98096.22
2022-10-02T21:21:31.145Z,98099.19
2022-10-02T21:26:58.793Z,98107.28
2022-10-02T21:32:28.817Z,98119.00
2022-10-02T21:37:44.658Z,98123.06
2022-10-02T21:43:15.216Z,98121.47
2022-10-02T21:48:40.960Z,98123.25
2022-10-02T21:54:12.874Z,98136.53
2022-10-02T21:59:24.685Z,98134.41
2022-10-02T22:04:39.326Z,98136.53
2022-10-02T22:09:44.576Z,98149.34
2022-10-02T22:14:53.987Z,98134.53
2022-10-02T22:20:01.363Z,98148.50
2022-10-02T22:25:18.286Z,98143.63
2022-10-02T22:30:24.918Z,98133.53
2022-10-02T22:35:45.151Z,98136.63
2022-10-02T22:40:51.399Z,98145.38
2022-10-02T22:46:05.324Z,98142.97
2022-10-02T22:51:21.897Z,98159.50
2022-10-02T22:56:51.594Z,98163.91
2022-10-02T23:01:59.297Z,98154.16
2022-10-02T23:07:13.044Z,98163.59
2022-10-02T23:12:47.317Z,98153.50
2022-10-02T23:18:19.241Z,98165.88
2022-10-02T23:23:50.988Z,98163.91
2022-10-02T23:29:14.355Z,98181.16
2022-10-02T23:34:34.413Z,98177.72
2022-10-02T23:39:58.573Z,98170.09
2022-10-02T23:45:08.458Z,98186.03
2022-10-02T23:51:02.896Z,98189.94
2022-10-02T23:56:32.194Z,98200.50
